Погода Риу-Кларуна 2 недели

Рио-де-Жанейро, Бразилия

23 июля-05 августа
  • 23июля
    Сегодня
    +11°
    +24°
    Ясно и безоблачно
    ВремяПогодаТемператураВлажностьДавлениеВетер, м/сВероятность осадков
    00:00Практически безоблачно+12°C93 %716 мм1.0 м/с5 %
    03:00Практически безоблачно+11°C93 %715 мм1.4 м/с5 %
    06:00Практически безоблачно+12°C90 %716 мм1.0 м/с2 %
    09:00Ясно и безоблачно+16°C72 %718 мм0.4 м/с2 %
    12:00Ясно и безоблачно+22°C58 %718 мм0.6 м/с5 %
    15:00Ясно и безоблачно+23°C56 %717 мм2.0 м/с5 %
    18:00Практически безоблачно+16°C91 %717 мм1.1 м/с5 %
    21:00Небольшая облачность+13°C96 %717 мм0.5 м/с5 %
  • 24июля
    Среда
    +13°
    +23°
    Ясно и безоблачно
    ВремяПогодаТемператураВлажностьДавлениеВетер, м/сВероятность осадков
    00:00Практически безоблачно+12°C95 %717 мм0.6 м/с5 %
    03:00Ясно и безоблачно+14°C79 %716 мм0.5 м/с5 %
    06:00Ясно и безоблачно+13°C80 %717 мм0.5 м/с5 %
    09:00Ясно и безоблачно+15°C81 %718 мм0.8 м/с5 %
    12:00Ясно и безоблачно+21°C62 %718 мм1.6 м/с5 %
    15:00Ясно и безоблачно+23°C50 %717 мм2.0 м/с5 %
    18:00Ясно и безоблачно+18°C74 %717 мм1.6 м/с5 %
    21:00Ясно и безоблачно+16°C86 %717 мм1.0 м/с5 %
  • 25июля
    Четверг
    +14°
    +25°
    Ясно и безоблачно
    ВремяПогодаТемператураВлажностьДавлениеВетер, м/сВероятность осадков
    00:00Ясно и безоблачно+16°C83 %717 мм0.5 м/с5 %
    03:00Практически безоблачно+15°C78 %716 мм0.9 м/с5 %
    06:00Небольшая облачность+14°C82 %716 мм0.4 м/с5 %
    09:00Практически безоблачно+15°C77 %717 мм1.0 м/с5 %
    12:00Ясно и безоблачно+22°C57 %716 мм1.8 м/с5 %
    15:00Ясно и безоблачно+25°C46 %714 мм1.0 м/с5 %
    18:00Ясно и безоблачно+19°C67 %714 мм1.4 м/с5 %
    21:00Ясно и безоблачно+20°C63 %715 мм0.5 м/с5 %
  • 26июля
    Пятница
    +15°
    +26°
    Облачно с прояснениями
    ВремяПогодаТемператураВлажностьДавлениеВетер, м/сВероятность осадков
    00:00Ясно и безоблачно+17°C74 %714 мм1.0 м/с5 %
    03:00Ясно и безоблачно+18°C66 %713 мм0.6 м/с5 %
    06:00Ясно и безоблачно+14°C78 %713 мм1.1 м/с5 %
    09:00Ясно и безоблачно+18°C68 %715 мм0.9 м/с5 %
    12:00Практически безоблачно+25°C50 %715 мм1.6 м/с5 %
    15:00Облачно с прояснениями+26°C42 %714 мм1.2 м/с5 %
    18:00Облачно с прояснениями+20°C68 %714 мм1.3 м/с5 %
    21:00Облачно с прояснениями+17°C79 %714 мм1.0 м/с5 %
  • 27июля
    Суббота
    +16°
    +27°
    Небольшая облачность
    ВремяПогодаТемператураВлажностьДавлениеВетер, м/сВероятность осадков
    00:00Облачно с прояснениями+16°C69 %714 мм0.8 м/с5 %
    03:00Облачно с прояснениями+17°C63 %714 мм0.9 м/с5 %
    06:00Облачно с прояснениями+19°C51 %714 мм0.5 м/с5 %
    09:00Облачно с прояснениями+21°C56 %716 мм0.9 м/с5 %
    12:00Облачно с прояснениями+25°C44 %716 мм1.7 м/с5 %
    15:00Небольшая облачность+27°C39 %715 мм1.5 м/с5 %
    18:00Небольшая облачность+20°C77 %715 мм1.8 м/с5 %
    21:00Небольшая облачность+17°C88 %715 мм1.2 м/с5 %
Мы используем cookies
Соглашаюсь